createdAt,value
2022-09-17T00:03:09.979Z,74.99
2022-09-17T00:08:16.553Z,75.13
2022-09-17T00:13:22.265Z,75.54
2022-09-17T00:18:27.733Z,75.93
2022-09-17T00:23:33.304Z,75.75
2022-09-17T00:28:39.144Z,76.19
2022-09-17T00:33:44.605Z,76.87
2022-09-17T00:38:55.891Z,77.15
2022-09-17T00:44:03.853Z,77.71
2022-09-17T00:49:18.305Z,77.97
2022-09-17T00:54:24.674Z,78.12
2022-09-17T00:59:30.391Z,78.35
2022-09-17T01:04:35.868Z,78.75
2022-09-17T01:10:07.450Z,79.15
2022-09-17T01:15:35.453Z,78.89
2022-09-17T01:21:02.102Z,79.12
2022-09-17T01:26:16.648Z,79.56
2022-09-17T01:31:37.391Z,79.97
2022-09-17T01:36:57.619Z,80.26
2022-09-17T01:42:18.830Z,80.23
2022-09-17T01:47:26.787Z,80.26
2022-09-17T01:52:35.515Z,80.36
2022-09-17T01:57:56.104Z,80.49
2022-09-17T02:03:13.446Z,80.97
2022-09-17T02:08:26.229Z,81.07
2022-09-17T02:13:34.724Z,81.24
2022-09-17T02:18:45.942Z,81.50
2022-09-17T02:24:04.172Z,81.39
2022-09-17T02:29:12.743Z,81.61
2022-09-17T02:34:18.431Z,81.87
2022-09-17T02:39:24.191Z,82.07
2022-09-17T02:44:55.392Z,82.44
2022-09-17T02:50:20.160Z,82.54
2022-09-17T02:55:46.551Z,82.64
2022-09-17T03:00:53.343Z,82.88
2022-09-17T03:05:59.089Z,83.23
2022-09-17T03:11:05.992Z,83.57
2022-09-17T03:16:11.829Z,83.56
2022-09-17T03:21:17.353Z,83.75
2022-09-17T03:26:22.820Z,84.00
2022-09-17T03:31:29.473Z,84.04
2022-09-17T03:36:35.068Z,84.17
2022-09-17T03:41:40.614Z,84.38
2022-09-17T03:46:46.463Z,84.43
2022-09-17T03:51:51.967Z,84.54
2022-09-17T03:56:57.349Z,84.67
2022-09-17T04:02:03.118Z,84.68
2022-09-17T04:07:08.841Z,84.80
2022-09-17T04:12:14.591Z,84.87
2022-09-17T04:17:20.141Z,85.06
2022-09-17T04:22:26.069Z,85.13
2022-09-17T04:27:31.449Z,85.30
2022-09-17T04:32:36.956Z,85.22
2022-09-17T04:37:42.370Z,85.19
2022-09-17T04:42:47.754Z,85.21
2022-09-17T04:47:53.505Z,85.25
2022-09-17T04:52:58.893Z,85.24
2022-09-17T04:58:04.643Z,85.25
2022-09-17T05:03:10.588Z,85.32
2022-09-17T05:08:15.970Z,85.37
2022-09-17T05:13:21.622Z,85.38
2022-09-17T05:18:27.014Z,85.39
2022-09-17T05:23:32.385Z,85.44
2022-09-17T05:28:37.761Z,85.54
2022-09-17T05:33:43.162Z,85.71
2022-09-17T05:38:48.740Z,85.55
2022-09-17T05:43:54.204Z,85.94
2022-09-17T05:48:59.877Z,85.65
2022-09-17T05:54:05.411Z,85.83
2022-09-17T05:59:11.000Z,85.65
2022-09-17T06:04:18.038Z,85.81
2022-09-17T06:09:23.406Z,85.89
2022-09-17T06:14:29.128Z,86.14
2022-09-17T06:19:34.545Z,85.84
2022-09-17T06:24:39.957Z,85.90
2022-09-17T06:29:45.410Z,85.59
2022-09-17T06:34:50.869Z,85.93
2022-09-17T06:39:56.452Z,85.50
2022-09-17T06:45:07.128Z,85.00
2022-09-17T06:50:09.516Z,85.04
2022-09-17T06:55:16.011Z,84.80
2022-09-17T07:00:21.757Z,84.83
2022-09-17T07:05:28.169Z,84.46
2022-09-17T07:10:33.726Z,84.35
2022-09-17T07:15:39.412Z,84.59
2022-09-17T07:20:44.899Z,83.76
2022-09-17T07:25:58.857Z,82.15
2022-09-17T07:31:05.816Z,81.91
2022-09-17T07:36:13.722Z,81.55
2022-09-17T07:41:19.630Z,80.73
2022-09-17T07:46:25.322Z,81.28
2022-09-17T07:51:30.784Z,80.42
2022-09-17T07:56:36.435Z,79.12
2022-09-17T08:01:42.554Z,78.30
2022-09-17T08:06:51.177Z,78.10
2022-09-17T08:11:57.120Z,78.09
2022-09-17T08:17:02.591Z,78.92
2022-09-17T08:22:07.972Z,77.65
2022-09-17T08:27:14.011Z,77.11
2022-09-17T08:32:19.662Z,77.21
2022-09-17T08:37:25.196Z,77.00
2022-09-17T08:42:42.832Z,77.65
2022-09-17T08:47:48.898Z,76.74
2022-09-17T08:53:30.989Z,77.49
2022-09-17T08:58:59.229Z,76.67
2022-09-17T09:04:19.771Z,76.90
2022-09-17T09:09:28.428Z,76.48
2022-09-17T09:14:39.701Z,77.19
2022-09-17T09:19:47.739Z,75.79
2022-09-17T09:24:58.949Z,75.45
2022-09-17T09:30:13.588Z,74.40
2022-09-17T09:35:22.070Z,74.27
2022-09-17T09:40:44.864Z,73.87
2022-09-17T09:46:26.128Z,73.55
2022-09-17T09:51:54.435Z,73.51
2022-09-17T09:57:07.590Z,73.67
2022-09-17T10:02:13.877Z,73.30
2022-09-17T10:07:19.597Z,72.20
2022-09-17T10:12:25.058Z,71.16
2022-09-17T10:17:30.732Z,70.97
2022-09-17T10:22:38.932Z,70.54
2022-09-17T10:27:46.476Z,70.45
2022-09-17T10:33:14.615Z,70.08
2022-09-17T10:38:32.030Z,68.91
2022-09-17T10:43:37.680Z,67.72
2022-09-17T10:48:46.020Z,67.98
2022-09-17T10:54:03.162Z,67.50
2022-09-17T10:59:26.654Z,67.83
2022-09-17T11:04:50.031Z,66.66
2022-09-17T11:10:04.497Z,66.29
2022-09-17T11:15:31.180Z,66.96
2022-09-17T11:20:48.750Z,65.22
2022-09-17T11:26:01.098Z,66.04
2022-09-17T11:31:23.883Z,65.98
2022-09-17T11:36:41.182Z,65.05
2022-09-17T11:41:49.967Z,64.73
2022-09-17T11:46:58.489Z,64.33
2022-09-17T11:52:27.961Z,64.60
2022-09-17T11:57:36.650Z,64.00
2022-09-17T12:02:59.785Z,62.60
2022-09-17T12:08:29.003Z,64.21
2022-09-17T12:13:55.638Z,62.38
2022-09-17T12:19:36.214Z,62.86
2022-09-17T12:24:42.569Z,62.41
2022-09-17T12:30:09.118Z,61.90
2022-09-17T12:35:20.493Z,61.46
2022-09-17T12:40:57.726Z,60.92
2022-09-17T12:46:30.454Z,60.91
2022-09-17T12:51:41.899Z,59.52
2022-09-17T12:56:58.901Z,59.09
2022-09-17T13:02:07.421Z,59.20
2022-09-17T13:07:39.859Z,58.31
2022-09-17T13:13:00.325Z,57.55
2022-09-17T13:18:27.261Z,58.66
2022-09-17T13:23:43.652Z,59.31
2022-09-17T13:28:53.418Z,59.68
2022-09-17T13:34:03.264Z,58.97
2022-09-17T13:39:11.906Z,60.59
2022-09-17T13:44:20.460Z,60.11
2022-09-17T13:49:26.356Z,58.67
2022-09-17T13:54:39.592Z,58.41
2022-09-17T13:59:49.337Z,58.28
2022-09-17T14:04:57.531Z,58.24
2022-09-17T14:10:15.048Z,58.29
2022-09-17T14:15:39.532Z,59.38
2022-09-17T14:20:45.881Z,60.35
2022-09-17T14:25:56.913Z,60.50
2022-09-17T14:31:05.701Z,61.55
2022-09-17T14:36:14.185Z,62.15
2022-09-17T14:41:28.468Z,62.69
2022-09-17T14:46:46.304Z,63.25
2022-09-17T14:51:51.085Z,63.46
2022-09-17T14:57:02.267Z,63.24
2022-09-17T15:02:16.541Z,62.79
2022-09-17T15:07:23.358Z,62.60
2022-09-17T15:12:30.860Z,62.38
2022-09-17T15:17:36.822Z,62.23
2022-09-17T15:22:43.940Z,62.46
2022-09-17T15:27:49.464Z,62.20
2022-09-17T15:32:57.267Z,62.22
2022-09-17T15:38:24.330Z,62.23
2022-09-17T15:43:32.734Z,62.38
2022-09-17T15:48:39.807Z,62.01
2022-09-17T15:53:53.618Z,62.67
2022-09-17T15:59:02.862Z,62.27
2022-09-17T16:04:19.994Z,62.49
2022-09-17T16:09:43.718Z,62.73
2022-09-17T16:14:51.704Z,63.25
2022-09-17T16:20:01.414Z,63.14
2022-09-17T16:25:06.869Z,63.42
2022-09-17T16:30:15.372Z,63.51
2022-09-17T16:35:22.997Z,63.72
2022-09-17T16:40:28.843Z,63.58
2022-09-17T16:45:34.261Z,63.63
2022-09-17T16:50:41.951Z,63.29
2022-09-17T16:55:47.519Z,63.49
2022-09-17T17:00:53.373Z,63.31
2022-09-17T17:05:58.756Z,63.69
2022-09-17T17:11:04.233Z,63.79
2022-09-17T17:16:14.871Z,63.64
2022-09-17T17:21:21.553Z,63.88
2022-09-17T17:26:26.951Z,63.71
2022-09-17T17:31:32.494Z,63.49
2022-09-17T17:36:37.897Z,63.49
2022-09-17T17:41:43.466Z,63.40
2022-09-17T17:46:49.014Z,63.15
2022-09-17T17:51:54.775Z,63.44
2022-09-17T17:57:00.167Z,63.47
2022-09-17T18:02:05.814Z,63.39
2022-09-17T18:07:11.370Z,63.60
2022-09-17T18:12:17.557Z,63.77
2022-09-17T18:17:24.561Z,64.05
2022-09-17T18:22:29.994Z,64.31
2022-09-17T18:27:35.411Z,64.54
2022-09-17T18:32:40.811Z,64.88
2022-09-17T18:37:46.280Z,65.15
2022-09-17T18:42:51.682Z,65.42
2022-09-17T18:47:57.194Z,65.96
2022-09-17T18:53:03.076Z,66.13
2022-09-17T18:58:08.703Z,66.39
2022-09-17T19:03:14.306Z,66.47
2022-09-17T19:08:23.917Z,66.50
2022-09-17T19:13:34.946Z,66.31
2022-09-17T19:18:41.475Z,66.18
2022-09-17T19:23:49.165Z,66.07
2022-09-17T19:28:58.019Z,66.25
2022-09-17T19:34:05.145Z,66.21
2022-09-17T19:39:11.579Z,66.53
2022-09-17T19:44:18.308Z,66.49
2022-09-17T19:49:24.609Z,66.55
2022-09-17T19:54:30.085Z,66.90
2022-09-17T19:59:35.518Z,66.97
2022-09-17T20:04:41.286Z,67.24
2022-09-17T20:09:48.736Z,67.25
2022-09-17T20:14:55.145Z,67.77
2022-09-17T20:20:00.927Z,68.05
2022-09-17T20:25:07.295Z,68.53
2022-09-17T20:30:14.086Z,68.49
2022-09-17T20:35:19.543Z,68.93
2022-09-17T20:40:25.453Z,68.97
2022-09-17T20:45:31.229Z,69.12
2022-09-17T20:50:36.825Z,69.57
2022-09-17T20:55:42.259Z,69.93
2022-09-17T21:00:47.740Z,70.09
2022-09-17T21:05:53.141Z,70.40
2022-09-17T21:10:58.761Z,70.64
2022-09-17T21:16:04.584Z,70.83
2022-09-17T21:21:13.553Z,71.25
2022-09-17T21:26:21.495Z,71.15
2022-09-17T21:31:32.306Z,71.61
2022-09-17T21:36:38.785Z,71.83
2022-09-17T21:41:46.000Z,72.04
2022-09-17T21:46:53.115Z,72.31
2022-09-17T21:51:58.543Z,72.49
2022-09-17T21:57:04.011Z,72.89
2022-09-17T22:02:09.606Z,72.98
2022-09-17T22:07:15.053Z,73.21
2022-09-17T22:12:20.434Z,73.33
2022-09-17T22:17:26.298Z,73.67
2022-09-17T22:22:31.757Z,73.87
2022-09-17T22:27:37.139Z,74.17
2022-09-17T22:32:42.527Z,74.37
2022-09-17T22:37:47.944Z,74.48
2022-09-17T22:42:53.361Z,74.56
2022-09-17T22:47:58.766Z,74.77
2022-09-17T22:53:04.198Z,74.81
2022-09-17T22:58:09.853Z,75.31
2022-09-17T23:03:15.287Z,75.46
2022-09-17T23:08:20.670Z,75.75
2022-09-17T23:13:26.124Z,76.30
2022-09-17T23:18:32.524Z,76.60
2022-09-17T23:23:38.450Z,76.95
2022-09-17T23:28:44.408Z,77.23
2022-09-17T23:33:50.606Z,77.48
2022-09-17T23:38:57.585Z,77.75
2022-09-17T23:44:09.415Z,77.85
2022-09-17T23:49:15.284Z,77.89
2022-09-17T23:54:20.681Z,78.36
2022-09-17T23:59:27.615Z,78.51
